Аэропорт: Жезказган. Жезказган

ICAO: UAKD

METAR:
2020-08-12 05:30:00
UAKD 120530Z 28007MPS 9999 VCSH BKN053CB OVC100 22/12 Q1003 R22/0///65 NOSIG RMK QFE719/0959
METAR:
2020-08-12 02:00:00
TAF UAKD 120200Z 1203/1212 25007MPS 9999 BKN030 BKN100 TEMPO 1203/1206 25010MPS -SHRA SCT015 BKN020CB BECMG 1206/1208 28007MPS TEMPO 1206/1212 29010MPS BKN030CB